Time;durP1;ratioP1;P1;durP2;ratioP2;P2;SDS_P1;SDS_P2;PMS_P1;PMS_P2;Temp;Humidity;BMP_temperature;BMP_pressure;BME280_temperature;BME280_humidity;BME280_pressure;Samples;Min_cycle;Max_cycle;Signal;HPM_P1;HPM_P2
2023/06/29 00:05:56;;;;;;;43.22;20.88;;;;;;;28.22;49.55;101072.16;21079300;28;20054;-59
2023/06/29 00:15:57;;;;;;;34.00;18.67;;;;;;;28.04;49.40;101051.59;21077038;28;20044;-58
2023/06/29 00:25:59;;;;;;;38.83;20.25;;;;;;;28.23;49.66;101094.34;21075740;28;20098;-58
2023/06/29 00:36:00;;;;;;;31.65;18.17;;;;;;;28.23;49.60;101122.50;21075795;28;20483;-58
2023/06/29 00:46:07;;;;;;;36.95;19.48;;;;;;;28.24;49.44;101140.22;21073966;28;20048;-56
2023/06/29 00:56:08;;;;;;;32.08;19.05;;;;;;;28.26;49.29;101166.03;21075265;28;20101;-56
2023/06/29 01:06:16;;;;;;;31.88;18.77;;;;;;;28.22;49.47;101179.91;21074937;28;20044;-58
2023/06/29 01:16:20;;;;;;;36.15;19.13;;;;;;;28.20;49.08;101187.84;21073526;28;20044;-59
2023/06/29 01:26:22;;;;;;;36.83;20.55;;;;;;;28.25;49.34;101210.22;21072118;28;20101;-59
2023/06/29 01:36:40;;;;;;;37.78;21.33;;;;;;;28.23;49.32;101235.06;21070081;28;20044;-59
2023/06/29 01:46:43;;;;;;;32.30;20.77;;;;;;;28.25;49.02;101249.63;21084448;28;20036;-59
2023/06/29 01:56:44;;;;;;;35.38;22.75;;;;;;;28.25;48.95;101260.06;21087937;28;20044;-59
2023/06/29 02:06:46;;;;;;;34.10;22.30;;;;;;;28.26;49.01;101256.06;21087182;28;20051;-58
2023/06/29 02:16:47;;;;;;;35.10;22.98;;;;;;;28.23;49.17;101274.44;21086945;28;20040;-58
2023/06/29 02:26:49;;;;;;;33.80;22.30;;;;;;;28.22;49.12;101275.59;21071508;28;20055;-59
2023/06/29 02:36:50;;;;;;;38.83;24.30;;;;;;;28.25;49.18;101277.75;21065936;28;20096;-59
2023/06/29 02:46:51;;;;;;;35.70;26.10;;;;;;;28.22;49.13;101295.28;21078493;28;20044;-60
2023/06/29 02:56:53;;;;;;;34.78;25.45;;;;;;;28.26;49.00;101293.47;20998715;28;20398;-58
2023/06/29 03:06:54;;;;;;;36.75;26.05;;;;;;;28.25;48.82;101293.81;21030837;28;20040;-58
2023/06/29 03:16:55;;;;;;;34.17;27.10;;;;;;;28.26;49.01;101298.28;21081346;28;20171;-57
2023/06/29 03:26:57;;;;;;;38.22;28.10;;;;;;;28.23;48.94;101296.97;21080544;28;20048;-59
2023/06/29 03:36:58;;;;;;;38.20;29.13;;;;;;;28.26;49.00;101307.56;21051478;28;20040;-59
2023/06/29 03:47:00;;;;;;;38.95;29.25;;;;;;;28.28;48.76;101330.59;21078899;28;20474;-59
2023/06/29 03:57:02;;;;;;;38.20;30.05;;;;;;;28.29;48.74;101335.06;21079226;28;20044;-57
2023/06/29 04:07:04;;;;;;;37.28;30.10;;;;;;;28.25;48.95;101339.66;21077525;28;20048;-59
2023/06/29 04:17:08;;;;;;;40.58;31.10;;;;;;;28.29;48.88;101351.94;21078113;28;20044;-59
2023/06/29 04:27:12;;;;;;;42.97;32.72;;;;;;;28.28;48.85;101350.28;21077390;28;20056;-59
2023/06/29 04:37:14;;;;;;;43.80;34.15;;;;;;;28.26;48.58;101346.13;21074836;28;20044;-59
2023/06/29 04:47:16;;;;;;;40.33;32.95;;;;;;;28.29;48.70;101351.94;21075445;28;20097;-59
2023/06/29 04:57:17;;;;;;;44.85;35.00;;;;;;;28.30;48.82;101353.59;21076294;28;20052;-60
2023/06/29 05:07:19;;;;;;;43.22;34.08;;;;;;;28.29;48.48;101360.38;21076168;28;20036;-57
2023/06/29 05:17:20;;;;;;;41.58;33.55;;;;;;;28.30;48.51;101347.97;21079989;28;20048;-59
2023/06/29 05:27:24;;;;;;;43.00;34.28;;;;;;;28.29;48.58;101337.88;21090576;28;20040;-59
2023/06/29 05:37:25;;;;;;;44.35;33.88;;;;;;;28.30;48.41;101333.91;21090857;28;20069;-59
2023/06/29 05:47:29;;;;;;;41.65;33.40;;;;;;;28.29;48.34;101342.69;21089560;28;20495;-59
2023/06/29 05:57:34;;;;;;;41.28;32.75;;;;;;;28.28;48.35;101349.47;21089389;28;20040;-59
2023/06/29 06:07:35;;;;;;;42.78;34.50;;;;;;;28.26;48.40;101340.50;21088297;28;20027;-59
2023/06/29 06:17:39;;;;;;;41.25;32.13;;;;;;;28.30;48.34;101352.78;21087225;28;20048;-59
2023/06/29 06:27:41;;;;;;;41.55;32.47;;;;;;;28.28;48.16;101350.28;21085756;28;20453;-59
2023/06/29 06:37:43;;;;;;;41.88;32.30;;;;;;;28.17;48.13;101342.44;21086156;28;20044;-57
2023/06/29 06:47:47;;;;;;;39.45;31.13;;;;;;;28.28;48.14;101360.72;21084588;28;20047;-59
2023/06/29 06:57:48;;;;;;;37.75;31.17;;;;;;;28.28;48.09;101377.59;21083488;28;20048;-58
2023/06/29 07:07:51;;;;;;;40.65;31.90;;;;;;;28.27;47.96;101364.66;21082617;28;20040;-58
2023/06/29 07:17:52;;;;;;;37.92;30.05;;;;;;;28.22;47.97;101367.63;21082054;28;20487;-60
2023/06/29 07:27:55;;;;;;;40.42;30.48;;;;;;;28.25;47.91;101373.44;21080042;28;20050;-60
2023/06/29 07:37:56;;;;;;;39.58;30.58;;;;;;;28.24;47.84;101377.41;21079866;28;20040;-59
2023/06/29 07:48:00;;;;;;;38.25;29.45;;;;;;;28.24;47.61;101388.66;21079322;28;20572;-59
2023/06/29 07:58:05;;;;;;;40.38;31.38;;;;;;;28.20;47.90;101384.84;21078864;28;20044;-59
2023/06/29 08:08:06;;;;;;;41.10;29.98;;;;;;;27.84;47.78;101328.63;21078772;28;20104;-59
2023/06/29 08:18:07;;;;;;;41.03;30.50;;;;;;;28.23;47.53;101398.28;21077707;28;20145;-59
2023/06/29 08:28:11;;;;;;;37.05;29.10;;;;;;;28.21;47.60;101394.94;21076915;28;20051;-59
2023/06/29 08:38:13;;;;;;;37.35;29.70;;;;;;;28.20;47.64;101403.69;21076490;28;20124;-59
2023/06/29 08:48:14;;;;;;;40.53;30.92;;;;;;;28.20;47.55;101406.50;21075737;28;20387;-59
2023/06/29 08:58:19;;;;;;;40.95;30.73;;;;;;;28.17;47.42;101410.78;21075440;28;20044;-59
2023/06/29 09:08:23;;;;;;;39.88;30.60;;;;;;;28.10;47.28;101399.16;21074146;28;20040;-59
2023/06/29 09:18:28;;;;;;;39.85;31.20;;;;;;;28.16;47.53;101425.19;21073365;28;20036;-59
2023/06/29 09:28:29;;;;;;;38.65;29.48;;;;;;;28.15;47.59;101444.06;21074794;28;20055;-59
2023/06/29 09:38:32;;;;;;;40.17;30.15;;;;;;;28.15;47.33;101460.94;21074980;28;20458;-59
2023/06/29 09:48:34;;;;;;;38.80;29.75;;;;;;;28.14;47.42;101470.53;21073931;28;20048;-59
2023/06/29 09:58:38;;;;;;;39.20;29.55;;;;;;;28.14;47.24;101478.16;21073449;28;20097;-59
2023/06/29 10:08:42;;;;;;;42.80;31.95;;;;;;;28.12;47.07;101487.72;21084304;28;20040;-59
2023/06/29 10:18:46;;;;;;;41.33;30.48;;;;;;;28.11;47.18;101499.28;21084883;28;20070;-58
2023/06/29 10:28:48;;;;;;;40.70;31.10;;;;;;;28.11;47.07;101522.63;21085672;28;20491;-59
2023/06/29 10:38:50;;;;;;;37.60;29.77;;;;;;;28.07;47.25;101535.66;21085783;28;20103;-59
2023/06/29 10:48:59;;;;;;;40.47;30.27;;;;;;;28.09;47.11;101566.31;21084931;28;20032;-60
2023/06/29 10:59:01;;;;;;;41.20;30.48;;;;;;;28.08;47.29;101575.88;21084692;28;20066;-58
2023/06/29 11:09:15;;;;;;;41.65;31.08;;;;;;;28.06;47.32;101589.44;21083791;28;20032;-57
2023/06/29 11:19:16;;;;;;;43.45;31.02;;;;;;;28.10;47.11;101590.47;21081856;28;20044;-59
2023/06/29 11:29:17;;;;;;;42.15;32.05;;;;;;;28.09;47.29;101617.78;21068286;28;20035;-58
2023/06/29 11:39:19;;;;;;;44.05;33.75;;;;;;;28.09;47.02;101619.78;21076426;28;20121;-58
2023/06/29 11:49:20;;;;;;;44.60;33.13;;;;;;;28.09;47.08;101622.59;21073521;28;20454;-58
2023/06/29 11:59:22;;;;;;;42.83;32.90;;;;;;;28.09;47.14;101626.22;21075992;28;20399;-58
2023/06/29 12:09:30;;;;;;;46.78;35.22;;;;;;;28.08;47.18;101629.34;21074938;28;20044;-58
2023/06/29 12:19:33;;;;;;;49.45;36.20;;;;;;;28.09;47.08;101622.59;21072998;28;20380;-59
2023/06/29 12:29:34;;;;;;;49.05;35.67;;;;;;;28.07;47.20;101638.94;21054462;28;20040;-59
2023/06/29 12:39:36;;;;;;;48.55;36.95;;;;;;;28.08;47.23;101640.59;21074663;28;20050;-59
2023/06/29 12:49:37;;;;;;;60.45;40.58;;;;;;;28.08;47.17;101654.66;21071369;28;20173;-58
2023/06/29 12:59:42;;;;;;;59.78;42.28;;;;;;;28.01;47.11;101659.88;21072703;28;20055;-59
2023/06/29 13:09:47;;;;;;;62.42;45.08;;;;;;;28.00;47.15;101659.06;21073265;28;20040;-58
2023/06/29 13:19:51;;;;;;;61.65;44.42;;;;;;;28.07;47.32;101681.13;21072153;28;20044;-58
2023/06/29 13:29:52;;;;;;;61.53;46.67;;;;;;;28.10;47.22;101674.91;21069057;28;20392;-57
2023/06/29 13:39:54;;;;;;;66.57;50.28;;;;;;;28.08;47.27;101663.09;21076439;28;20402;-58
2023/06/29 13:49:55;;;;;;;69.93;50.22;;;;;;;28.08;47.59;101655.50;21085074;28;20044;-59
2023/06/29 13:59:56;;;;;;;65.00;50.42;;;;;;;28.07;47.36;101647.38;21078062;28;20087;-58
2023/06/29 14:09:58;;;;;;;70.43;51.38;;;;;;;28.08;47.62;101647.03;21042938;28;20476;-57
2023/06/29 14:19:59;;;;;;;67.68;49.75;;;;;;;28.09;47.41;101656.34;21064662;28;20403;-58
2023/06/29 14:30:01;;;;;;;70.28;51.22;;;;;;;28.08;47.53;101657.47;21084211;28;20347;-58
2023/06/29 14:40:03;;;;;;;65.28;47.45;;;;;;;28.07;47.51;101651.00;21083625;28;20040;-59
2023/06/29 14:50:06;;;;;;;68.20;50.05;;;;;;;28.08;47.63;101643.41;21081164;28;20040;-55
2023/06/29 15:00:08;;;;;;;67.07;49.53;;;;;;;28.07;47.74;101641.75;21077300;28;20113;-58
2023/06/29 15:10:10;;;;;;;71.35;52.65;;;;;;;28.08;47.65;101627.34;21081273;28;20044;-59
2023/06/29 15:20:11;;;;;;;68.43;50.95;;;;;;;28.08;47.86;101612.47;21080381;28;20395;-59
2023/06/29 15:30:13;;;;;;;69.90;51.53;;;;;;;28.07;47.80;101608.81;21034515;28;20040;-59
2023/06/29 15:40:17;;;;;;;86.30;52.22;;;;;;;28.04;46.77;101591.72;21066211;28;20050;-58
2023/06/29 15:50:18;;;;;;;77.78;51.45;;;;;;;27.88;43.46;101601.66;21078516;28;20048;-57
2023/06/29 16:00:20;;;;;;;77.65;51.13;;;;;;;27.59;41.52;101585.88;21078400;28;20482;-58
2023/06/29 16:10:22;;;;;;;77.80;49.65;;;;;;;27.46;40.34;101600.75;21076254;28;20567;-58
2023/06/29 16:20:23;;;;;;;68.45;48.70;;;;;;;27.35;40.32;101609.38;21075866;28;20035;-60
2023/06/29 16:30:34;;;;;;;66.88;46.25;;;;;;;27.26;40.09;101602.81;21076765;28;20044;-59
2023/06/29 16:40:36;;;;;;;63.35;46.58;;;;;;;27.14;39.76;101594.03;21075959;28;20044;-59
2023/06/29 16:50:37;;;;;;;64.03;46.63;;;;;;;27.02;39.73;101602.06;21075692;28;20040;-59
2023/06/29 17:00:40;;;;;;;61.75;45.05;;;;;;;26.99;39.79;101588.66;21075085;28;20556;-59
2023/06/29 17:10:41;;;;;;;66.20;44.33;;;;;;;26.95;39.14;101576.34;21076094;28;20040;-59
2023/06/29 17:20:43;;;;;;;62.72;46.00;;;;;;;26.85;39.24;101571.75;21091655;28;20036;-59
2023/06/29 17:30:45;;;;;;;58.90;43.97;;;;;;;26.80;39.09;101557.78;21091127;28;20055;-59
2023/06/29 17:40:46;;;;;;;56.38;42.60;;;;;;;26.76;38.95;101537.09;21089966;28;20081;-58
2023/06/29 17:50:51;;;;;;;58.40;42.45;;;;;;;26.71;38.52;101542.75;21089682;28;20382;-58
2023/06/29 18:00:52;;;;;;;57.65;41.47;;;;;;;26.61;38.78;101529.72;21088722;28;20398;-58
2023/06/29 18:10:54;;;;;;;60.35;42.60;;;;;;;26.58;38.32;101521.94;21087377;28;20047;-58
2023/06/29 18:20:55;;;;;;;54.72;39.72;;;;;;;26.55;38.79;101514.13;21086611;28;20048;-58
2023/06/29 18:30:56;;;;;;;54.42;40.92;;;;;;;26.50;38.35;101502.97;21084319;28;20036;-57
2023/06/29 18:41:01;;;;;;;52.78;39.20;;;;;;;26.48;38.50;101502.44;21084648;28;20093;-57
2023/06/29 18:51:02;;;;;;;51.55;38.67;;;;;;;26.44;38.44;101515.44;21084451;28;20036;-58
2023/06/29 19:01:03;;;;;;;49.88;37.53;;;;;;;26.40;38.22;101503.13;21084083;28;20044;-58
2023/06/29 19:11:05;;;;;;;50.58;39.05;;;;;;;26.35;38.12;101512.47;21082377;28;20062;-58
2023/06/29 19:21:09;;;;;;;48.40;37.42;;;;;;;26.33;40.02;101493.09;21082041;28;20044;-59
2023/06/29 19:31:10;;;;;;;49.85;37.47;;;;;;;26.30;43.35;101457.25;21080875;28;20043;-58
2023/06/29 19:41:11;;;;;;;46.05;35.97;;;;;;;26.56;44.92;101476.50;21080639;28;20097;-59
2023/06/29 19:51:13;;;;;;;45.45;36.15;;;;;;;26.63;46.34;101478.91;21079738;28;20148;-59
2023/06/29 20:01:14;;;;;;;46.53;36.08;;;;;;;26.71;46.67;101466.97;21079003;28;20113;-57
2023/06/29 20:11:15;;;;;;;48.13;36.75;;;;;;;26.78;47.25;101458.97;21078112;28;20035;-58
2023/06/29 20:21:17;;;;;;;46.15;35.25;;;;;;;26.77;47.57;101441.31;21077221;28;20043;-58
2023/06/29 20:31:18;;;;;;;46.03;36.58;;;;;;;26.94;47.39;101439.84;21076198;28;20471;-59
2023/06/29 20:41:23;;;;;;;43.38;34.67;;;;;;;26.99;47.61;101431.38;21076463;28;20086;-59
2023/06/29 20:51:24;;;;;;;46.75;35.90;;;;;;;27.05;47.49;101430.94;21074207;28;20044;-59
2023/06/29 21:01:28;;;;;;;49.47;37.08;;;;;;;27.10;47.71;101449.69;21074729;28;20036;-59
2023/06/29 21:11:33;;;;;;;45.72;35.33;;;;;;;27.06;47.50;101454.25;21074055;28;20355;-59
2023/06/29 21:21:34;;;;;;;46.72;36.40;;;;;;;27.19;47.55;101453.44;21073141;28;20040;-59
2023/06/29 21:31:36;;;;;;;49.92;38.53;;;;;;;27.23;47.52;101448.88;21073511;28;20106;-58
2023/06/29 21:41:37;;;;;;;51.63;40.15;;;;;;;27.27;47.42;101444.31;21073172;28;20055;-59
2023/06/29 21:51:39;;;;;;;52.53;40.10;;;;;;;27.31;47.34;101445.34;21072692;28;20043;-58
2023/06/29 22:01:41;;;;;;;53.53;40.45;;;;;;;27.31;47.21;101428.47;21081360;28;20040;-59
2023/06/29 22:11:43;;;;;;;54.42;40.50;;;;;;;27.37;47.27;101420.78;21087215;28;20552;-59
2023/06/29 22:21:45;;;;;;;52.70;39.15;;;;;;;27.39;47.28;101428.88;21086018;28;20090;-59
2023/06/29 22:31:46;;;;;;;51.85;40.17;;;;;;;27.42;47.34;101431.06;21086184;28;20054;-59
2023/06/29 22:41:47;;;;;;;53.25;40.60;;;;;;;27.43;46.97;101458.84;21084567;28;20070;-59
2023/06/29 22:51:49;;;;;;;57.22;42.47;;;;;;;27.48;46.85;101477.59;21083919;28;20040;-59
2023/06/29 23:01:50;;;;;;;57.67;43.40;;;;;;;27.49;46.82;101496.97;21083270;28;20375;-59
2023/06/29 23:11:51;;;;;;;60.33;44.78;;;;;;;27.49;46.52;101493.31;21082308;28;20040;-59
2023/06/29 23:21:53;;;;;;;63.50;45.80;;;;;;;27.47;46.68;101493.63;21081677;28;20082;-58
2023/06/29 23:31:54;;;;;;;63.30;46.55;;;;;;;27.54;46.34;101496.88;21081252;28;20043;-58
2023/06/29 23:41:56;;;;;;;64.18;47.47;;;;;;;27.45;46.28;101481.03;21080684;28;20033;-59
2023/06/29 23:51:57;;;;;;;67.05;48.95;;;;;;;27.51;46.21;101503.09;21080684;28;20475;-59
